Ponciano Arriaga International Airport
MMSP : now visible

Airfield :











YOU CAN JOIN US ON...

 
LOGIN :

Register | Disclaimer

   EN    FR    IT 

 









Legend :    VFR   Marginal VFR   IFR   Intensive IFR   Very Intensive IFR
Visi :
Ceiling :
>= 8 km
>= 3000ft
5 to 8 km
1000 to 3000 ft
1500m to 5 km
500 to 1000 ft
800 to 1500m
200 to 500 ft
< 800m
< 200 ft
Symbols :   Thunderstorms  Fog  Heavy snow  Heavy precipitations  Wind > 20 kt






- Airport Elevation : 6035 ft
- IATA code : SLP


MMSP - Ponciano Arriaga International

CURRENT METAR :
  • 150640Z 17006KT 8SM SKC 10/M03 A3016

EXPIRED METARs :
  • 150540Z 00000KT 8SM SKC 09/M03 A3016 RMK SLP115 52014 974
  • 150440Z 00000KT 8SM SKC 10/M04 A3016 RMK FU

TAF TAF MMSP
Valid from the 15 at 06:00 until the 16 at 12:00 UTC


150420Z 1506/1612 00000KT P6SM SKC TX27/1521Z TN06/1512Z
FM151600 22010KT P6SM SKC
FM160200 16005KT P6SM SKC



MET'MAP, your aeronautical weather chart ! - Copyright ORBIFLY December 2007 - Disclaimer

ORBIFLY MET'MAP TEAM :

Programming & Development : Alexandra Zaïnal
Concept & original design : Baudouin d'Aumeries
Assistance for programming : Marc-Olivier Méhu
Technical & hardware support : Manuel Goepfert

Contact : metmap@orbifly.com




SOURCES & CREDITS :

   NOAA       Earth
Advisory